createdAt,value
2018-02-09T00:01:06.394Z,-4.55
2018-02-09T00:03:32.155Z,-4.66
2018-02-09T00:05:57.903Z,-4.71
2018-02-09T00:08:23.670Z,-4.87
2018-02-09T00:10:49.410Z,-4.93
2018-02-09T00:13:15.170Z,-4.94
2018-02-09T00:15:40.923Z,-4.69
2018-02-09T00:18:07.239Z,-4.59
2018-02-09T00:20:33.035Z,-4.88
2018-02-09T00:22:58.788Z,-4.66
2018-02-09T00:25:24.542Z,-4.58
2018-02-09T00:27:50.304Z,-4.58
2018-02-09T00:30:16.042Z,-4.58
2018-02-09T00:32:41.814Z,-4.72
2018-02-09T00:35:07.559Z,-4.70
2018-02-09T00:37:33.339Z,-4.71
2018-02-09T00:39:59.083Z,-4.83
2018-02-09T00:42:24.833Z,-4.86
2018-02-09T00:44:50.588Z,-4.74
2018-02-09T00:47:16.366Z,-4.76
2018-02-09T00:49:42.114Z,-4.78
2018-02-09T00:52:07.859Z,-4.83
2018-02-09T00:54:33.628Z,-4.76
2018-02-09T00:56:59.374Z,-4.83
2018-02-09T00:59:25.131Z,-4.72
2018-02-09T01:01:50.878Z,-4.71
2018-02-09T01:04:16.659Z,-4.80
2018-02-09T01:06:42.410Z,-4.83
2018-02-09T01:09:08.184Z,-4.89
2018-02-09T01:11:33.938Z,-4.84
2018-02-09T01:13:59.715Z,-4.84
2018-02-09T01:16:25.606Z,-4.82
2018-02-09T01:18:51.369Z,-4.85
2018-02-09T01:21:17.140Z,-4.86
2018-02-09T01:23:42.894Z,-4.86
2018-02-09T01:26:08.646Z,-4.91
2018-02-09T01:28:34.414Z,-4.90
2018-02-09T01:31:00.176Z,-4.78
2018-02-09T01:33:25.927Z,-4.78
2018-02-09T01:35:51.678Z,-4.73
2018-02-09T01:38:17.442Z,-4.76
2018-02-09T01:40:43.202Z,-4.78
2018-02-09T01:43:08.963Z,-4.78
2018-02-09T01:45:34.722Z,-4.80
2018-02-09T01:48:00.467Z,-4.73
2018-02-09T01:50:26.229Z,-4.74
2018-02-09T01:52:51.994Z,-4.75
2018-02-09T01:55:17.756Z,-4.71
2018-02-09T01:57:43.497Z,-4.68
2018-02-09T02:00:09.274Z,-4.82
2018-02-09T02:02:35.027Z,-4.81
2018-02-09T02:05:00.786Z,-4.79
2018-02-09T02:07:26.547Z,-4.73
2018-02-09T02:09:52.320Z,-4.73
2018-02-09T02:12:18.088Z,-4.77
2018-02-09T02:14:43.867Z,-4.89
2018-02-09T02:17:09.611Z,-4.94
2018-02-09T02:19:35.361Z,-4.84
2018-02-09T02:22:01.114Z,-4.86
2018-02-09T02:24:26.867Z,-4.91
2018-02-09T02:26:52.622Z,-4.89
2018-02-09T02:29:18.388Z,-4.93
2018-02-09T02:31:44.150Z,-4.95
2018-02-09T02:34:09.903Z,-5.05
2018-02-09T02:36:35.678Z,-4.95
2018-02-09T02:39:08.443Z,-4.95
2018-02-09T02:41:34.199Z,-4.93
2018-02-09T02:43:59.956Z,-4.94
2018-02-09T02:46:25.720Z,-4.97
2018-02-09T02:48:51.462Z,-4.94
2018-02-09T02:51:17.226Z,-4.97
2018-02-09T02:53:42.983Z,-4.99
2018-02-09T02:56:08.753Z,-4.91
2018-02-09T02:58:34.497Z,-4.97
2018-02-09T03:01:00.262Z,-5.00
2018-02-09T03:03:26.023Z,-4.91
2018-02-09T03:05:51.799Z,-4.84
2018-02-09T03:08:17.550Z,-4.90
2018-02-09T03:10:43.318Z,-4.92
2018-02-09T03:13:09.071Z,-4.91
2018-02-09T03:15:34.821Z,-4.93
2018-02-09T03:18:00.583Z,-4.92
2018-02-09T03:20:26.332Z,-4.94
2018-02-09T03:22:52.098Z,-4.92
2018-02-09T03:25:17.854Z,-4.99
2018-02-09T03:27:43.604Z,-5.04
2018-02-09T03:30:09.351Z,-5.05
2018-02-09T03:32:35.121Z,-5.02
2018-02-09T03:35:00.865Z,-5.01
2018-02-09T03:37:26.656Z,-4.97
2018-02-09T03:39:52.410Z,-5.09
2018-02-09T03:42:18.173Z,-5.15
2018-02-09T03:44:43.922Z,-5.05
2018-02-09T03:47:09.690Z,-5.14
2018-02-09T03:49:35.452Z,-5.08
2018-02-09T03:52:01.218Z,-5.09
2018-02-09T03:54:26.982Z,-5.09
2018-02-09T03:56:52.722Z,-4.98
2018-02-09T03:59:18.487Z,-5.02
2018-02-09T04:01:44.248Z,-4.99
2018-02-09T04:04:10.012Z,-4.97
2018-02-09T04:06:35.759Z,-5.02
2018-02-09T04:09:01.520Z,-5.02
2018-02-09T04:11:27.278Z,-5.00
2018-02-09T04:13:53.047Z,-5.02
2018-02-09T04:16:18.793Z,-5.06
2018-02-09T04:18:44.555Z,-5.12
2018-02-09T04:21:10.315Z,-5.13
2018-02-09T04:23:36.095Z,-5.06
2018-02-09T04:26:01.846Z,-5.05
2018-02-09T04:28:27.611Z,-5.11
2018-02-09T04:30:53.371Z,-5.04
2018-02-09T04:33:19.136Z,-5.11
2018-02-09T04:35:44.887Z,-5.07
2018-02-09T04:38:10.659Z,-5.06
2018-02-09T04:40:36.420Z,-5.08
2018-02-09T04:43:02.186Z,-5.12
2018-02-09T04:45:27.983Z,-5.04
2018-02-09T04:47:53.723Z,-5.07
2018-02-09T04:50:19.495Z,-5.10
2018-02-09T04:52:45.246Z,-5.08
2018-02-09T04:55:11.070Z,-5.00
2018-02-09T04:57:36.794Z,-5.10
2018-02-09T05:00:02.586Z,-5.07
2018-02-09T05:02:28.338Z,-5.17
2018-02-09T05:04:54.108Z,-5.07
2018-02-09T05:07:19.860Z,-5.13
2018-02-09T05:09:45.638Z,-5.08
2018-02-09T05:12:11.400Z,-5.07
2018-02-09T05:14:37.162Z,-5.11
2018-02-09T05:17:02.923Z,-5.08
2018-02-09T05:19:28.683Z,-5.00
2018-02-09T05:21:54.472Z,-5.01
2018-02-09T05:24:20.217Z,-5.03
2018-02-09T05:26:45.967Z,-5.11
2018-02-09T05:29:11.730Z,-5.09
2018-02-09T05:31:37.475Z,-5.17
2018-02-09T05:34:03.247Z,-5.15
2018-02-09T05:36:29.021Z,-5.13
2018-02-09T05:38:54.761Z,-5.24
2018-02-09T05:41:20.575Z,-5.24
2018-02-09T05:43:46.288Z,-5.26
2018-02-09T05:46:12.039Z,-5.22
2018-02-09T05:48:37.782Z,-5.26
2018-02-09T05:51:03.546Z,-5.22
2018-02-09T05:53:29.285Z,-5.27
2018-02-09T05:55:55.055Z,-5.21
2018-02-09T05:58:20.805Z,-5.18
2018-02-09T06:00:46.573Z,-5.14
2018-02-09T06:03:12.320Z,-5.22
2018-02-09T06:05:38.079Z,-5.24
2018-02-09T06:08:03.818Z,-5.17
2018-02-09T06:10:29.582Z,-5.26
2018-02-09T06:12:55.335Z,-5.23
2018-02-09T06:15:21.110Z,-5.17
2018-02-09T06:17:46.865Z,-5.19
2018-02-09T06:20:12.614Z,-5.22
2018-02-09T06:22:38.370Z,-5.28
2018-02-09T06:25:04.118Z,-5.12
2018-02-09T06:27:29.881Z,-5.20
2018-02-09T06:29:55.631Z,-5.26
2018-02-09T06:32:21.404Z,-5.21
2018-02-09T06:34:47.156Z,-5.23
2018-02-09T06:37:12.930Z,-5.30
2018-02-09T06:39:38.710Z,-5.28
2018-02-09T06:42:04.502Z,-5.22
2018-02-09T06:44:30.249Z,-5.26
2018-02-09T06:46:56.002Z,-5.20
2018-02-09T06:49:21.767Z,-5.26
2018-02-09T06:51:47.507Z,-5.28
2018-02-09T06:54:13.277Z,-5.29
2018-02-09T06:56:39.035Z,-5.30
2018-02-09T06:59:04.790Z,-5.25
2018-02-09T07:01:30.558Z,-5.21
2018-02-09T07:03:56.339Z,-5.24
2018-02-09T07:06:22.097Z,-5.23
2018-02-09T07:08:47.886Z,-5.23
2018-02-09T07:11:13.639Z,-5.20
2018-02-09T07:13:39.386Z,-5.10
2018-02-09T07:16:05.173Z,-5.18
2018-02-09T07:18:30.932Z,-5.08
2018-02-09T07:20:56.702Z,-5.07
2018-02-09T07:23:22.454Z,-5.05
2018-02-09T07:25:48.230Z,-4.97
2018-02-09T07:28:13.992Z,-5.08
2018-02-09T07:30:39.747Z,-4.95
2018-02-09T07:33:05.495Z,-4.92
2018-02-09T07:35:31.266Z,-4.82
2018-02-09T07:37:57.082Z,-4.83
2018-02-09T07:40:22.820Z,-4.76
2018-02-09T07:42:48.568Z,-4.74
2018-02-09T07:45:14.330Z,-4.68
2018-02-09T07:47:40.077Z,-4.67
2018-02-09T07:50:05.847Z,-4.58
2018-02-09T07:52:31.588Z,-4.56
2018-02-09T07:54:57.351Z,-4.45
2018-02-09T07:57:23.110Z,-4.38
2018-02-09T07:59:48.882Z,-4.35
2018-02-09T08:02:14.634Z,-4.31
2018-02-09T08:04:40.383Z,-4.28
2018-02-09T08:07:06.142Z,-4.16
2018-02-09T08:09:31.905Z,-4.11
2018-02-09T08:11:57.670Z,-4.05
2018-02-09T08:14:23.418Z,-4.04
2018-02-09T08:16:49.175Z,-3.96
2018-02-09T08:19:14.922Z,-3.88
2018-02-09T08:21:40.692Z,-3.87
2018-02-09T08:24:06.438Z,-3.82
2018-02-09T08:26:32.195Z,-3.67
2018-02-09T08:28:57.937Z,-3.57
2018-02-09T08:31:23.707Z,-3.50
2018-02-09T08:33:49.454Z,-3.44
2018-02-09T08:36:15.210Z,-3.35
2018-02-09T08:38:40.951Z,-3.25
2018-02-09T08:41:06.720Z,-3.26
2018-02-09T08:43:32.472Z,-3.15
2018-02-09T08:45:58.228Z,-3.17
2018-02-09T08:48:23.962Z,-3.10
2018-02-09T08:50:49.729Z,-3.02
2018-02-09T08:53:15.489Z,-3.08
2018-02-09T08:55:41.243Z,-3.02
2018-02-09T08:58:07.014Z,-2.92
2018-02-09T09:00:32.755Z,-2.92
2018-02-09T09:02:58.542Z,-2.82
2018-02-09T09:05:24.295Z,-2.76
2018-02-09T09:07:50.078Z,-2.63
2018-02-09T09:10:15.842Z,-2.61
2018-02-09T09:12:41.628Z,-2.56
2018-02-09T09:15:07.405Z,-2.52
2018-02-09T09:17:33.164Z,-2.45
2018-02-09T09:19:58.957Z,-2.39
2018-02-09T09:22:24.705Z,-2.21
2018-02-09T09:24:50.473Z,-2.34
2018-02-09T09:27:16.210Z,-2.24
2018-02-09T09:29:41.969Z,-2.16
2018-02-09T09:32:07.737Z,-2.09
2018-02-09T09:34:33.503Z,-2.08
2018-02-09T09:36:59.244Z,-1.96
2018-02-09T09:39:25.052Z,-1.83
2018-02-09T09:41:50.776Z,-1.88
2018-02-09T09:44:16.534Z,-1.66
2018-02-09T09:46:42.278Z,-1.56
2018-02-09T09:49:08.027Z,-1.39
2018-02-09T09:51:33.762Z,-1.24
2018-02-09T09:53:59.742Z,-1.27
2018-02-09T09:56:25.487Z,-1.10
2018-02-09T09:58:51.230Z,-1.04
2018-02-09T10:01:20.809Z,-1.03
2018-02-09T10:03:46.558Z,-0.95
2018-02-09T10:06:12.314Z,-0.85
2018-02-09T10:08:38.074Z,-0.77
2018-02-09T10:11:03.830Z,-0.78
2018-02-09T10:13:29.595Z,-0.70
2018-02-09T10:15:55.352Z,-0.61
2018-02-09T10:18:21.114Z,-0.57
2018-02-09T10:20:46.859Z,-0.59
2018-02-09T10:23:12.618Z,-0.37
2018-02-09T10:25:38.384Z,-0.40
2018-02-09T10:28:04.155Z,-0.40
2018-02-09T10:30:29.903Z,-0.31
2018-02-09T10:32:55.670Z,-0.19
2018-02-09T10:35:21.419Z,-0.24
2018-02-09T10:37:47.184Z,-0.11
2018-02-09T10:40:12.925Z,0.07
2018-02-09T10:42:38.677Z,0.16
2018-02-09T10:45:04.436Z,0.22
2018-02-09T10:47:30.190Z,0.28
2018-02-09T10:49:55.938Z,0.07
2018-02-09T10:52:21.690Z,0.05
2018-02-09T10:54:47.446Z,0.32
2018-02-09T10:57:13.199Z,0.26
2018-02-09T10:59:38.958Z,0.30
2018-02-09T11:02:04.702Z,0.24
2018-02-09T11:04:30.462Z,0.31
2018-02-09T11:06:56.229Z,0.35
2018-02-09T11:09:28.150Z,0.60
2018-02-09T11:11:57.945Z,0.66
2018-02-09T11:14:23.742Z,0.78
2018-02-09T11:16:49.510Z,0.85
2018-02-09T11:19:15.266Z,0.73
2018-02-09T11:21:41.026Z,0.66
2018-02-09T11:24:06.790Z,0.77
2018-02-09T11:26:32.560Z,1.01
2018-02-09T11:28:58.338Z,0.91
2018-02-09T11:31:24.103Z,0.92
2018-02-09T11:33:49.866Z,1.03
2018-02-09T11:36:15.650Z,1.34
2018-02-09T11:38:41.409Z,1.42
2018-02-09T11:41:07.172Z,1.24
2018-02-09T11:43:32.943Z,1.51
2018-02-09T11:45:58.708Z,1.22
2018-02-09T11:48:24.463Z,1.50
2018-02-09T11:50:50.232Z,1.58
2018-02-09T11:53:15.982Z,1.35
2018-02-09T11:55:41.743Z,1.17
2018-02-09T11:58:07.511Z,1.07
2018-02-09T12:00:33.279Z,1.50
2018-02-09T12:02:59.038Z,1.53
2018-02-09T12:05:24.807Z,1.73
2018-02-09T12:07:50.558Z,1.48
2018-02-09T12:10:16.339Z,1.59
2018-02-09T12:12:42.088Z,1.40
2018-02-09T12:15:07.857Z,1.24
2018-02-09T12:17:33.636Z,1.58
2018-02-09T12:19:59.420Z,1.71
2018-02-09T12:22:25.165Z,1.57
2018-02-09T12:24:50.927Z,1.53
2018-02-09T12:27:16.683Z,1.60
2018-02-09T12:29:42.434Z,1.83
2018-02-09T12:32:08.177Z,1.45
2018-02-09T12:34:33.935Z,1.25
2018-02-09T12:36:59.698Z,1.44
2018-02-09T12:39:25.459Z,1.19
2018-02-09T12:41:51.235Z,1.28
2018-02-09T12:44:16.998Z,1.34
2018-02-09T12:46:42.774Z,1.59
2018-02-09T12:49:08.534Z,1.74
2018-02-09T12:51:34.336Z,1.71
2018-02-09T12:54:00.099Z,1.77
2018-02-09T12:56:25.858Z,1.73
2018-02-09T12:58:51.636Z,1.52
2018-02-09T13:01:17.370Z,1.47
2018-02-09T13:03:43.182Z,1.51
2018-02-09T13:06:08.974Z,1.34
2018-02-09T13:08:34.723Z,1.26
2018-02-09T13:11:00.459Z,1.39
2018-02-09T13:13:26.218Z,1.43
2018-02-09T13:15:51.950Z,1.39
2018-02-09T13:18:30.036Z,1.56
2018-02-09T13:20:55.778Z,1.39
2018-02-09T13:23:33.989Z,1.43
2018-02-09T13:25:59.733Z,1.55
2018-02-09T13:28:37.847Z,1.53
2018-02-09T13:31:03.599Z,1.48
2018-02-09T13:33:29.358Z,1.61
2018-02-09T13:35:55.098Z,1.63
2018-02-09T13:38:20.850Z,1.44
2018-02-09T13:40:46.602Z,1.60
2018-02-09T13:43:12.377Z,1.61
2018-02-09T13:45:38.137Z,1.59
2018-02-09T13:48:03.907Z,1.46
2018-02-09T13:50:29.662Z,1.44
2018-02-09T13:52:55.426Z,1.36
2018-02-09T13:55:21.242Z,1.27
2018-02-09T13:57:47.002Z,1.38
2018-02-09T14:00:13.562Z,1.33
2018-02-09T14:02:39.312Z,1.29
2018-02-09T14:05:05.066Z,1.35
2018-02-09T14:07:30.810Z,1.28
2018-02-09T14:09:56.568Z,1.18
2018-02-09T14:12:22.314Z,1.27
2018-02-09T14:14:48.075Z,1.14
2018-02-09T14:17:13.833Z,1.17
2018-02-09T14:19:39.581Z,1.34
2018-02-09T14:22:05.334Z,1.36
2018-02-09T14:24:31.098Z,1.35
2018-02-09T14:26:56.852Z,1.36
2018-02-09T14:29:22.602Z,1.34
2018-02-09T14:31:48.335Z,1.24
2018-02-09T14:34:14.082Z,1.21
2018-02-09T14:36:39.861Z,1.17
2018-02-09T14:39:05.625Z,1.14
2018-02-09T14:41:31.395Z,1.36
2018-02-09T14:43:57.256Z,1.32
2018-02-09T14:46:23.075Z,1.43
2018-02-09T14:48:48.909Z,1.17
2018-02-09T14:51:14.688Z,1.24
2018-02-09T14:53:40.559Z,1.17
2018-02-09T14:56:06.339Z,1.30
2018-02-09T14:58:32.148Z,1.11
2018-02-09T15:00:57.927Z,1.00
2018-02-09T15:03:23.704Z,0.97
2018-02-09T15:05:49.704Z,0.93
2018-02-09T15:08:15.455Z,0.82
2018-02-09T15:10:41.324Z,0.83
2018-02-09T15:13:07.333Z,0.76
2018-02-09T15:15:33.106Z,0.66
2018-02-09T15:17:58.981Z,0.64
2018-02-09T15:20:24.779Z,0.57
2018-02-09T15:22:50.745Z,0.49
2018-02-09T15:25:16.556Z,0.46
2018-02-09T15:27:42.378Z,0.43
2018-02-09T15:30:08.183Z,0.38
2018-02-09T15:32:34.055Z,0.40
2018-02-09T15:34:59.912Z,0.35
2018-02-09T15:37:25.700Z,0.36
2018-02-09T15:39:51.516Z,0.30
2018-02-09T15:42:17.320Z,0.27
2018-02-09T15:44:43.091Z,0.24
2018-02-09T15:47:08.855Z,0.24
2018-02-09T15:49:34.596Z,0.16
2018-02-09T15:52:00.389Z,0.11
2018-02-09T15:54:26.148Z,0.00
2018-02-09T15:56:51.894Z,-0.04
2018-02-09T15:59:17.676Z,-0.04
2018-02-09T16:01:43.447Z,-0.13
2018-02-09T16:04:09.212Z,-0.14
2018-02-09T16:06:34.976Z,-0.21
2018-02-09T16:09:00.762Z,-0.14
2018-02-09T16:11:26.518Z,-0.21
2018-02-09T16:13:53.532Z,-0.23
2018-02-09T16:16:19.291Z,-0.26
2018-02-09T16:18:45.067Z,-0.30
2018-02-09T16:21:10.822Z,-0.38
2018-02-09T16:23:36.608Z,-0.45
2018-02-09T16:26:02.377Z,-0.50
2018-02-09T16:28:28.142Z,-0.56
2018-02-09T16:30:53.897Z,-0.58
2018-02-09T16:33:19.654Z,-0.66
2018-02-09T16:35:45.427Z,-0.64
2018-02-09T16:38:11.169Z,-0.61
2018-02-09T16:40:36.943Z,-0.69
2018-02-09T16:43:02.844Z,-0.70
2018-02-09T16:45:28.755Z,-0.73
2018-02-09T16:47:54.546Z,-0.81
2018-02-09T16:50:20.334Z,-0.82
2018-02-09T16:52:46.102Z,-0.80
2018-02-09T16:55:11.910Z,-0.93
2018-02-09T16:57:37.688Z,-0.88
2018-02-09T17:00:03.512Z,-0.87
2018-02-09T17:02:29.285Z,-0.83
2018-02-09T17:04:55.058Z,-0.86
2018-02-09T17:07:20.850Z,-0.94
2018-02-09T17:09:46.630Z,-0.93
2018-02-09T17:12:12.384Z,-0.92
2018-02-09T17:14:38.127Z,-0.92
2018-02-09T17:17:03.895Z,-0.92
2018-02-09T17:19:29.643Z,-0.95
2018-02-09T17:21:55.418Z,-0.99
2018-02-09T17:24:21.182Z,-1.13
2018-02-09T17:26:46.976Z,-1.01
2018-02-09T17:29:12.774Z,-1.13
2018-02-09T17:31:38.613Z,-1.12
2018-02-09T17:34:04.378Z,-1.08
2018-02-09T17:36:30.195Z,-1.09
2018-02-09T17:38:56.006Z,-1.14
2018-02-09T17:41:21.802Z,-1.17
2018-02-09T17:43:47.562Z,-1.23
2018-02-09T17:46:13.310Z,-1.30
2018-02-09T17:48:39.094Z,-1.27
2018-02-09T17:51:04.925Z,-1.44
2018-02-09T17:53:30.773Z,-1.49
2018-02-09T17:55:56.624Z,-1.54
2018-02-09T17:58:22.366Z,-1.54
2018-02-09T18:00:48.159Z,-1.53
2018-02-09T18:03:13.961Z,-1.58
2018-02-09T18:05:39.722Z,-1.66
2018-02-09T18:08:05.495Z,-1.71
2018-02-09T18:10:31.241Z,-1.66
2018-02-09T18:12:57.012Z,-1.64
2018-02-09T18:15:22.814Z,-1.57
2018-02-09T18:17:48.627Z,-1.57
2018-02-09T18:20:14.399Z,-1.58
2018-02-09T18:22:40.214Z,-1.60
2018-02-09T18:25:05.999Z,-1.65
2018-02-09T18:27:31.766Z,-1.68
2018-02-09T18:29:57.509Z,-1.71
2018-02-09T18:32:23.288Z,-1.76
2018-02-09T18:34:49.064Z,-1.83
2018-02-09T18:37:14.818Z,-1.74
2018-02-09T18:39:40.573Z,-1.84
2018-02-09T18:42:06.401Z,-1.81
2018-02-09T18:44:32.258Z,-1.85
2018-02-09T18:46:58.038Z,-1.87
2018-02-09T18:49:23.848Z,-1.86
2018-02-09T18:51:49.634Z,-1.88
2018-02-09T18:54:15.404Z,-1.96
2018-02-09T18:56:41.171Z,-2.05
2018-02-09T18:59:06.945Z,-2.00
2018-02-09T19:01:32.722Z,-1.98
2018-02-09T19:03:58.606Z,-1.96
2018-02-09T19:06:24.420Z,-2.01
2018-02-09T19:08:50.234Z,-2.06
2018-02-09T19:11:16.022Z,-2.01
2018-02-09T19:13:41.815Z,-2.09
2018-02-09T19:16:07.591Z,-2.08
2018-02-09T19:18:33.346Z,-2.09
2018-02-09T19:20:59.102Z,-2.11
2018-02-09T19:23:24.875Z,-2.09
2018-02-09T19:25:50.650Z,-2.15
2018-02-09T19:28:16.410Z,-2.17
2018-02-09T19:30:42.190Z,-2.18
2018-02-09T19:33:07.951Z,-2.21
2018-02-09T19:35:33.710Z,-2.22
2018-02-09T19:37:59.463Z,-2.20
2018-02-09T19:40:25.231Z,-2.20
2018-02-09T19:42:50.982Z,-2.27
2018-02-09T19:45:16.774Z,-2.26
2018-02-09T19:47:42.531Z,-2.33
2018-02-09T19:50:08.310Z,-2.36
2018-02-09T19:52:34.074Z,-2.35
2018-02-09T19:54:59.838Z,-2.33
2018-02-09T19:57:25.591Z,-2.41
2018-02-09T19:59:51.342Z,-2.39
2018-02-09T20:02:17.105Z,-2.42
2018-02-09T20:04:42.855Z,-2.43
2018-02-09T20:07:08.623Z,-2.39
2018-02-09T20:09:34.379Z,-2.39
2018-02-09T20:12:00.152Z,-2.40
2018-02-09T20:14:25.903Z,-2.37
2018-02-09T20:16:51.658Z,-2.41
2018-02-09T20:19:17.417Z,-2.45
2018-02-09T20:21:43.171Z,-2.51
2018-02-09T20:24:08.930Z,-2.56
2018-02-09T20:26:34.691Z,-2.69
2018-02-09T20:29:00.434Z,-2.67
2018-02-09T20:31:26.195Z,-2.67
2018-02-09T20:33:51.934Z,-2.78
2018-02-09T20:36:17.689Z,-2.93
2018-02-09T20:38:43.430Z,-2.96
2018-02-09T20:41:09.182Z,-2.93
2018-02-09T20:43:34.955Z,-2.97
2018-02-09T20:46:00.707Z,-2.94
2018-02-09T20:48:26.467Z,-3.05
2018-02-09T20:50:52.232Z,-3.01
2018-02-09T20:53:17.993Z,-3.05
2018-02-09T20:55:43.750Z,-3.10
2018-02-09T20:58:09.509Z,-3.14
2018-02-09T21:00:35.258Z,-3.20
2018-02-09T21:03:01.014Z,-3.23
2018-02-09T21:05:26.758Z,-3.13
2018-02-09T21:07:52.515Z,-3.18
2018-02-09T21:10:18.278Z,-3.13
2018-02-09T21:12:44.047Z,-3.17
2018-02-09T21:15:09.801Z,-3.22
2018-02-09T21:17:35.563Z,-3.24
2018-02-09T21:20:01.327Z,-3.33
2018-02-09T21:22:27.082Z,-3.31
2018-02-09T21:24:52.842Z,-3.44
2018-02-09T21:27:18.611Z,-3.50
2018-02-09T21:29:44.366Z,-3.34
2018-02-09T21:32:10.163Z,-3.34
2018-02-09T21:34:35.917Z,-3.45
2018-02-09T21:37:01.668Z,-3.52
2018-02-09T21:39:27.417Z,-3.50
2018-02-09T21:41:53.166Z,-3.51
2018-02-09T21:44:18.932Z,-3.44
2018-02-09T21:46:44.666Z,-3.56
2018-02-09T21:49:10.426Z,-3.67
2018-02-09T21:51:36.194Z,-3.69
2018-02-09T21:54:01.966Z,-3.67
2018-02-09T21:56:27.714Z,-3.66
2018-02-09T21:58:53.461Z,-3.75
2018-02-09T22:01:19.215Z,-3.61
2018-02-09T22:03:44.970Z,-3.65
2018-02-09T22:06:10.734Z,-3.71
2018-02-09T22:08:36.491Z,-3.65
2018-02-09T22:11:02.234Z,-3.71
2018-02-09T22:13:28.011Z,-3.77
2018-02-09T22:15:53.750Z,-3.71
2018-02-09T22:18:19.517Z,-3.70
2018-02-09T22:20:45.281Z,-3.68
2018-02-09T22:23:11.039Z,-3.71
2018-02-09T22:25:36.815Z,-3.82
2018-02-09T22:28:02.568Z,-3.88
2018-02-09T22:30:28.326Z,-3.93
2018-02-09T22:32:54.078Z,-3.93
2018-02-09T22:35:19.867Z,-3.92
2018-02-09T22:37:45.630Z,-3.95
2018-02-09T22:40:11.415Z,-3.78
2018-02-09T22:42:37.182Z,-3.82
2018-02-09T22:45:02.946Z,-3.82
2018-02-09T22:47:28.691Z,-3.76
2018-02-09T22:49:54.457Z,-3.71
2018-02-09T22:52:20.218Z,-3.68
2018-02-09T22:54:46.003Z,-3.75
2018-02-09T22:57:11.762Z,-3.73
2018-02-09T22:59:37.677Z,-3.78
2018-02-09T23:02:03.422Z,-3.79
2018-02-09T23:04:29.287Z,-3.86
2018-02-09T23:06:55.060Z,-3.87
2018-02-09T23:09:20.814Z,-3.91
2018-02-09T23:11:46.583Z,-3.88
2018-02-09T23:14:12.341Z,-4.00
2018-02-09T23:16:38.137Z,-4.15
2018-02-09T23:19:03.886Z,-4.18
2018-02-09T23:21:29.661Z,-4.18
2018-02-09T23:23:55.417Z,-4.20
2018-02-09T23:26:21.202Z,-4.04
2018-02-09T23:28:46.979Z,-4.01
2018-02-09T23:31:12.756Z,-4.01
2018-02-09T23:33:38.649Z,-4.28
2018-02-09T23:36:04.538Z,-4.14
2018-02-09T23:38:30.281Z,-4.22
2018-02-09T23:40:56.046Z,-4.15
2018-02-09T23:43:21.787Z,-4.32
2018-02-09T23:45:47.551Z,-4.41
2018-02-09T23:48:13.290Z,-4.35
2018-02-09T23:50:39.066Z,-4.26
2018-02-09T23:53:04.827Z,-4.25
2018-02-09T23:55:30.598Z,-4.35
2018-02-09T23:57:56.334Z,-4.43
